Grand Canyon National Park, AZ

07:59 PM MST on Juli 30, 2015 (GMT -0700)
KAZGRAND3 | | Change Station
CLOSE
Current Station
Personal Weather Stations
Location: Grand Canyon, AZ
Elevation: 6991 ft
Nearby Weather Stations

Elev 6991 ft 36.05 °N, 112.12 °W | Updated 4 seconds ago

Molnigt
Molnigt
71.1 °F
Feels Like 77 °F
N
0.0
Vind Växlande Vind from N/NO
Gusts 7.0 miles/tim

Idag
High -- | Low -- °F
--% Chance of Precip.
Yesterday
High -- | Low -- °F
Precip. -- tum
5:34 AM 7:35 PM
Fullmåne, 100% visible
Lufttryck 30.07 tum
Sikt 10.0 miles
Molnigt Molnigt 9500 ft
Värmeindex 77 °F
Daggpunkt 46 °F
Luftfuktighet 41%
Rainfall 0.00 tum
Snow Depth Not available.
UV 0 out of 12
Pollen 3.30 out of 12
Air Quality Not available.
Flu Activity Not available.
METAR KGCN 310254Z AUTO 09006KT 10SM OVC095 22/08 A3037 RMK AO2 SLP181 T02220078 53004

More Conditions Fewer Conditions

Lufttryck 30.07 tum
Sikt 10.0 miles
Molnigt Molnigt 9500 ft
Värmeindex 77 °F
Daggpunkt 46 °F
Luftfuktighet 41%
Rainfall 0.00 tum
Snow Depth Not available.
UV 0 out of 12
Pollen 3.30 out of 12
Air Quality Not available.
Flu Activity Not available.
METAR KGCN 310254Z AUTO 09006KT 10SM OVC095 22/08 A3037 RMK AO2 SLP181 T02220078 53004

More Conditions Fewer Conditions

10-Day Weather Forecast

×

Almanac

Astronomi

Jul. 30, 2015 Rise Set
Actual Time
Civil Twilight
Nautical Twilight
Astronomical Twilight
Månen
Length Of Visible Light
Dagens längd
Tomorrow will be .
, % of the Moon is Illuminated

Today's Extremes

State Highs State Lows

Community

WunderPhotos

Upload Photos

1,842,589 photos uploaded!

WunderBlogs® & News

Nearby

Air Quality

  Air Quality AQ Index Pollutant
Not available.

Snödjup

Station Depth Elevation

Earthquake Activity

Stad Distance Mag. Time & Date
Minimum magnitude displayed is 2.5.

Coastal Water Temperatures

Plats Temperatur

Stations

Nearby Weather Stations

Station Location Temp Vindavkylning Daggpunkt Luftfuktighet Vind Precip. Elev Uppdaterad Type